sensor_id;sensor_type;location;lat;lon;timestamp;P1;durP1;ratioP1;P2;durP2;ratioP2
52554;SDS011;38455;52.710;6.502;2022-08-19T00:00:37;8.18;;;5.20;;
52554;SDS011;38455;52.710;6.502;2022-08-19T00:03:04;9.57;;;4.75;;
52554;SDS011;38455;52.710;6.502;2022-08-19T00:05:31;8.23;;;4.70;;
52554;SDS011;38455;52.710;6.502;2022-08-19T00:07:57;8.85;;;4.95;;
52554;SDS011;38455;52.710;6.502;2022-08-19T00:10:23;6.22;;;4.25;;
52554;SDS011;38455;52.710;6.502;2022-08-19T00:12:49;5.63;;;4.75;;
52554;SDS011;38455;52.710;6.502;2022-08-19T00:15:16;7.57;;;4.65;;
52554;SDS011;38455;52.710;6.502;2022-08-19T00:17:44;9.10;;;4.60;;
52554;SDS011;38455;52.710;6.502;2022-08-19T00:20:11;8.32;;;5.53;;
52554;SDS011;38455;52.710;6.502;2022-08-19T00:22:41;7.30;;;4.75;;
52554;SDS011;38455;52.710;6.502;2022-08-19T00:25:07;9.13;;;4.93;;
52554;SDS011;38455;52.710;6.502;2022-08-19T00:27:33;6.10;;;4.47;;
52554;SDS011;38455;52.710;6.502;2022-08-19T00:29:59;7.45;;;5.43;;
52554;SDS011;38455;52.710;6.502;2022-08-19T00:32:28;10.18;;;5.50;;
52554;SDS011;38455;52.710;6.502;2022-08-19T00:34:54;8.18;;;4.95;;
52554;SDS011;38455;52.710;6.502;2022-08-19T00:37:20;9.30;;;5.88;;
52554;SDS011;38455;52.710;6.502;2022-08-19T00:39:48;10.43;;;5.78;;
52554;SDS011;38455;52.710;6.502;2022-08-19T00:42:15;9.60;;;6.15;;
52554;SDS011;38455;52.710;6.502;2022-08-19T00:44:42;9.20;;;5.60;;
52554;SDS011;38455;52.710;6.502;2022-08-19T00:47:08;8.40;;;5.35;;
52554;SDS011;38455;52.710;6.502;2022-08-19T00:49:38;8.27;;;4.97;;
52554;SDS011;38455;52.710;6.502;2022-08-19T00:52:17;7.65;;;5.57;;
52554;SDS011;38455;52.710;6.502;2022-08-19T00:54:47;9.38;;;5.55;;
52554;SDS011;38455;52.710;6.502;2022-08-19T00:57:15;9.13;;;5.70;;
52554;SDS011;38455;52.710;6.502;2022-08-19T00:59:44;9.68;;;5.97;;
52554;SDS011;38455;52.710;6.502;2022-08-19T01:02:12;9.55;;;5.95;;
52554;SDS011;38455;52.710;6.502;2022-08-19T01:04:40;8.13;;;5.13;;
52554;SDS011;38455;52.710;6.502;2022-08-19T01:07:05;8.73;;;6.10;;
52554;SDS011;38455;52.710;6.502;2022-08-19T01:09:32;7.90;;;5.90;;
52554;SDS011;38455;52.710;6.502;2022-08-19T01:11:58;9.27;;;6.63;;
52554;SDS011;38455;52.710;6.502;2022-08-19T01:14:24;9.38;;;5.80;;
52554;SDS011;38455;52.710;6.502;2022-08-19T01:16:50;9.32;;;6.78;;
52554;SDS011;38455;52.710;6.502;2022-08-19T01:21:55;9.70;;;6.57;;
52554;SDS011;38455;52.710;6.502;2022-08-19T01:24:30;9.07;;;6.35;;
52554;SDS011;38455;52.710;6.502;2022-08-19T01:26:56;10.68;;;6.72;;
52554;SDS011;38455;52.710;6.502;2022-08-19T01:29:22;8.70;;;6.05;;
52554;SDS011;38455;52.710;6.502;2022-08-19T01:31:48;10.88;;;6.63;;
52554;SDS011;38455;52.710;6.502;2022-08-19T01:34:17;10.45;;;7.25;;
52554;SDS011;38455;52.710;6.502;2022-08-19T01:36:44;12.10;;;7.13;;
52554;SDS011;38455;52.710;6.502;2022-08-19T01:39:23;14.10;;;7.63;;
52554;SDS011;38455;52.710;6.502;2022-08-19T01:41:50;11.73;;;7.30;;
52554;SDS011;38455;52.710;6.502;2022-08-19T01:44:19;11.60;;;7.57;;
52554;SDS011;38455;52.710;6.502;2022-08-19T01:46:48;14.27;;;6.93;;
52554;SDS011;38455;52.710;6.502;2022-08-19T01:49:15;12.10;;;7.85;;
52554;SDS011;38455;52.710;6.502;2022-08-19T01:51:43;13.18;;;7.53;;
52554;SDS011;38455;52.710;6.502;2022-08-19T01:54:10;9.32;;;6.57;;
52554;SDS011;38455;52.710;6.502;2022-08-19T01:56:38;10.65;;;7.13;;
52554;SDS011;38455;52.710;6.502;2022-08-19T01:59:05;9.98;;;6.90;;
52554;SDS011;38455;52.710;6.502;2022-08-19T02:01:36;12.98;;;7.40;;
52554;SDS011;38455;52.710;6.502;2022-08-19T02:04:02;9.70;;;5.20;;
52554;SDS011;38455;52.710;6.502;2022-08-19T02:06:28;5.80;;;4.13;;
52554;SDS011;38455;52.710;6.502;2022-08-19T02:08:54;7.78;;;5.22;;
52554;SDS011;38455;52.710;6.502;2022-08-19T02:11:21;4.45;;;3.13;;
52554;SDS011;38455;52.710;6.502;2022-08-19T02:13:52;3.75;;;2.83;;
52554;SDS011;38455;52.710;6.502;2022-08-19T02:16:19;5.43;;;2.30;;
52554;SDS011;38455;52.710;6.502;2022-08-19T02:18:45;5.57;;;3.88;;
52554;SDS011;38455;52.710;6.502;2022-08-19T02:21:14;4.30;;;3.13;;
52554;SDS011;38455;52.710;6.502;2022-08-19T02:23:41;6.72;;;4.15;;
52554;SDS011;38455;52.710;6.502;2022-08-19T02:26:07;10.15;;;7.30;;
52554;SDS011;38455;52.710;6.502;2022-08-19T02:28:33;10.00;;;5.20;;
52554;SDS011;38455;52.710;6.502;2022-08-19T02:30:58;7.28;;;4.57;;
52554;SDS011;38455;52.710;6.502;2022-08-19T02:33:25;8.02;;;5.28;;
52554;SDS011;38455;52.710;6.502;2022-08-19T02:35:51;7.35;;;5.60;;
52554;SDS011;38455;52.710;6.502;2022-08-19T02:38:17;11.90;;;7.40;;
52554;SDS011;38455;52.710;6.502;2022-08-19T02:40:53;11.30;;;7.60;;
52554;SDS011;38455;52.710;6.502;2022-08-19T02:43:21;19.23;;;8.40;;
52554;SDS011;38455;52.710;6.502;2022-08-19T02:45:48;11.98;;;7.90;;
52554;SDS011;38455;52.710;6.502;2022-08-19T02:48:21;12.43;;;8.07;;
52554;SDS011;38455;52.710;6.502;2022-08-19T02:50:48;9.32;;;7.03;;
52554;SDS011;38455;52.710;6.502;2022-08-19T02:53:20;11.05;;;7.18;;
52554;SDS011;38455;52.710;6.502;2022-08-19T02:55:48;4.32;;;2.30;;
52554;SDS011;38455;52.710;6.502;2022-08-19T02:58:15;4.80;;;2.65;;
52554;SDS011;38455;52.710;6.502;2022-08-19T03:00:44;6.57;;;3.85;;
52554;SDS011;38455;52.710;6.502;2022-08-19T03:03:12;5.18;;;3.63;;
52554;SDS011;38455;52.710;6.502;2022-08-19T03:05:38;5.43;;;3.75;;
52554;SDS011;38455;52.710;6.502;2022-08-19T03:08:04;9.38;;;5.43;;
52554;SDS011;38455;52.710;6.502;2022-08-19T03:10:31;7.90;;;5.47;;
52554;SDS011;38455;52.710;6.502;2022-08-19T03:12:57;8.27;;;5.32;;
52554;SDS011;38455;52.710;6.502;2022-08-19T03:15:23;5.07;;;2.92;;
52554;SDS011;38455;52.710;6.502;2022-08-19T03:17:49;5.70;;;3.80;;
52554;SDS011;38455;52.710;6.502;2022-08-19T03:20:15;7.93;;;4.72;;
52554;SDS011;38455;52.710;6.502;2022-08-19T03:22:41;10.15;;;4.55;;
52554;SDS011;38455;52.710;6.502;2022-08-19T03:25:06;9.20;;;3.33;;
52554;SDS011;38455;52.710;6.502;2022-08-19T03:27:32;5.13;;;3.35;;
52554;SDS011;38455;52.710;6.502;2022-08-19T03:29:58;4.97;;;3.28;;
52554;SDS011;38455;52.710;6.502;2022-08-19T03:32:24;3.17;;;2.05;;
52554;SDS011;38455;52.710;6.502;2022-08-19T03:34:50;3.88;;;2.65;;
52554;SDS011;38455;52.710;6.502;2022-08-19T03:37:15;4.35;;;2.85;;
52554;SDS011;38455;52.710;6.502;2022-08-19T03:39:41;4.53;;;2.90;;
52554;SDS011;38455;52.710;6.502;2022-08-19T03:42:07;6.28;;;2.83;;
52554;SDS011;38455;52.710;6.502;2022-08-19T03:44:36;9.25;;;3.88;;
52554;SDS011;38455;52.710;6.502;2022-08-19T03:47:02;7.82;;;4.47;;
52554;SDS011;38455;52.710;6.502;2022-08-19T03:49:30;6.65;;;4.18;;
52554;SDS011;38455;52.710;6.502;2022-08-19T03:51:58;4.30;;;2.80;;
52554;SDS011;38455;52.710;6.502;2022-08-19T03:54:25;5.43;;;3.33;;
52554;SDS011;38455;52.710;6.502;2022-08-19T03:56:53;5.07;;;3.50;;
52554;SDS011;38455;52.710;6.502;2022-08-19T03:59:21;5.72;;;3.10;;
52554;SDS011;38455;52.710;6.502;2022-08-19T04:01:51;4.72;;;2.92;;
52554;SDS011;38455;52.710;6.502;2022-08-19T04:04:18;4.18;;;3.05;;
52554;SDS011;38455;52.710;6.502;2022-08-19T04:06:43;6.47;;;2.20;;
52554;SDS011;38455;52.710;6.502;2022-08-19T04:09:10;10.00;;;4.85;;
52554;SDS011;38455;52.710;6.502;2022-08-19T04:11:37;8.27;;;4.50;;
52554;SDS011;38455;52.710;6.502;2022-08-19T04:14:06;6.60;;;4.40;;
52554;SDS011;38455;52.710;6.502;2022-08-19T04:16:33;6.50;;;4.45;;
52554;SDS011;38455;52.710;6.502;2022-08-19T04:19:00;6.95;;;4.50;;
52554;SDS011;38455;52.710;6.502;2022-08-19T04:21:28;5.28;;;4.00;;
52554;SDS011;38455;52.710;6.502;2022-08-19T04:23:54;6.03;;;3.88;;
52554;SDS011;38455;52.710;6.502;2022-08-19T04:26:26;4.70;;;3.05;;
52554;SDS011;38455;52.710;6.502;2022-08-19T04:28:53;3.25;;;2.45;;
52554;SDS011;38455;52.710;6.502;2022-08-19T04:31:23;5.35;;;2.75;;
52554;SDS011;38455;52.710;6.502;2022-08-19T04:33:54;4.03;;;2.55;;
52554;SDS011;38455;52.710;6.502;2022-08-19T04:36:26;5.30;;;2.65;;
52554;SDS011;38455;52.710;6.502;2022-08-19T04:38:54;3.60;;;2.30;;
52554;SDS011;38455;52.710;6.502;2022-08-19T04:41:22;6.53;;;3.10;;
52554;SDS011;38455;52.710;6.502;2022-08-19T04:44:06;4.55;;;3.17;;
52554;SDS011;38455;52.710;6.502;2022-08-19T04:46:32;6.07;;;2.53;;
52554;SDS011;38455;52.710;6.502;2022-08-19T04:48:58;6.40;;;4.18;;
52554;SDS011;38455;52.710;6.502;2022-08-19T04:51:25;6.35;;;4.03;;
52554;SDS011;38455;52.710;6.502;2022-08-19T04:53:52;7.60;;;4.22;;
52554;SDS011;38455;52.710;6.502;2022-08-19T04:56:18;5.90;;;4.30;;
52554;SDS011;38455;52.710;6.502;2022-08-19T04:58:51;4.75;;;3.25;;
52554;SDS011;38455;52.710;6.502;2022-08-19T05:01:20;4.55;;;3.25;;
52554;SDS011;38455;52.710;6.502;2022-08-19T05:03:47;5.20;;;3.33;;
52554;SDS011;38455;52.710;6.502;2022-08-19T05:06:13;5.05;;;3.20;;
52554;SDS011;38455;52.710;6.502;2022-08-19T05:08:41;4.72;;;3.35;;
52554;SDS011;38455;52.710;6.502;2022-08-19T05:11:30;5.70;;;3.75;;
52554;SDS011;38455;52.710;6.502;2022-08-19T05:13:56;8.18;;;2.72;;
52554;SDS011;38455;52.710;6.502;2022-08-19T05:16:22;4.05;;;2.72;;
52554;SDS011;38455;52.710;6.502;2022-08-19T05:18:50;8.32;;;3.47;;
52554;SDS011;38455;52.710;6.502;2022-08-19T05:21:35;7.68;;;3.22;;
52554;SDS011;38455;52.710;6.502;2022-08-19T05:24:20;7.00;;;4.00;;
52554;SDS011;38455;52.710;6.502;2022-08-19T05:26:47;4.78;;;3.10;;
52554;SDS011;38455;52.710;6.502;2022-08-19T05:29:15;6.15;;;3.40;;
52554;SDS011;38455;52.710;6.502;2022-08-19T05:31:44;5.32;;;3.45;;
52554;SDS011;38455;52.710;6.502;2022-08-19T05:34:11;9.52;;;5.20;;
52554;SDS011;38455;52.710;6.502;2022-08-19T05:36:41;7.35;;;5.00;;
52554;SDS011;38455;52.710;6.502;2022-08-19T05:39:09;6.53;;;4.55;;
52554;SDS011;38455;52.710;6.502;2022-08-19T05:41:41;6.38;;;4.32;;
52554;SDS011;38455;52.710;6.502;2022-08-19T05:44:07;8.20;;;5.72;;
52554;SDS011;38455;52.710;6.502;2022-08-19T05:46:35;10.02;;;7.07;;
52554;SDS011;38455;52.710;6.502;2022-08-19T05:49:03;8.07;;;6.25;;
52554;SDS011;38455;52.710;6.502;2022-08-19T05:51:30;7.35;;;5.20;;
52554;SDS011;38455;52.710;6.502;2022-08-19T05:53:58;8.75;;;5.82;;
52554;SDS011;38455;52.710;6.502;2022-08-19T05:56:23;7.15;;;5.38;;
52554;SDS011;38455;52.710;6.502;2022-08-19T05:58:49;7.40;;;5.45;;
52554;SDS011;38455;52.710;6.502;2022-08-19T06:01:15;10.10;;;5.72;;
52554;SDS011;38455;52.710;6.502;2022-08-19T06:03:43;8.65;;;5.95;;
52554;SDS011;38455;52.710;6.502;2022-08-19T06:06:10;11.02;;;7.05;;
52554;SDS011;38455;52.710;6.502;2022-08-19T06:08:38;11.20;;;7.13;;
52554;SDS011;38455;52.710;6.502;2022-08-19T06:13:45;9.85;;;6.57;;
52554;SDS011;38455;52.710;6.502;2022-08-19T06:16:15;10.45;;;6.88;;
52554;SDS011;38455;52.710;6.502;2022-08-19T06:18:51;9.20;;;6.10;;
52554;SDS011;38455;52.710;6.502;2022-08-19T06:21:18;8.25;;;6.38;;
52554;SDS011;38455;52.710;6.502;2022-08-19T06:23:49;19.88;;;7.28;;
52554;SDS011;38455;52.710;6.502;2022-08-19T06:26:16;11.45;;;7.35;;
52554;SDS011;38455;52.710;6.502;2022-08-19T06:28:43;11.07;;;7.93;;
52554;SDS011;38455;52.710;6.502;2022-08-19T06:31:33;9.85;;;7.53;;
52554;SDS011;38455;52.710;6.502;2022-08-19T06:33:59;11.68;;;8.55;;
52554;SDS011;38455;52.710;6.502;2022-08-19T06:36:34;12.23;;;8.18;;
52554;SDS011;38455;52.710;6.502;2022-08-19T06:39:04;12.75;;;7.93;;
52554;SDS011;38455;52.710;6.502;2022-08-19T06:41:34;11.02;;;7.80;;
52554;SDS011;38455;52.710;6.502;2022-08-19T06:44:02;12.13;;;7.50;;
52554;SDS011;38455;52.710;6.502;2022-08-19T06:46:29;10.20;;;7.40;;
52554;SDS011;38455;52.710;6.502;2022-08-19T06:48:56;9.57;;;6.88;;
52554;SDS011;38455;52.710;6.502;2022-08-19T06:51:22;12.57;;;8.25;;
52554;SDS011;38455;52.710;6.502;2022-08-19T06:53:49;10.57;;;7.80;;
52554;SDS011;38455;52.710;6.502;2022-08-19T06:56:16;12.02;;;7.72;;
52554;SDS011;38455;52.710;6.502;2022-08-19T06:58:43;14.45;;;7.60;;
52554;SDS011;38455;52.710;6.502;2022-08-19T07:01:09;9.55;;;7.43;;
52554;SDS011;38455;52.710;6.502;2022-08-19T07:03:36;10.60;;;6.78;;
52554;SDS011;38455;52.710;6.502;2022-08-19T07:06:04;11.65;;;6.85;;
52554;SDS011;38455;52.710;6.502;2022-08-19T07:08:32;7.55;;;5.88;;
52554;SDS011;38455;52.710;6.502;2022-08-19T07:10:58;8.57;;;6.03;;
52554;SDS011;38455;52.710;6.502;2022-08-19T07:13:25;8.35;;;5.93;;
52554;SDS011;38455;52.710;6.502;2022-08-19T07:15:50;7.30;;;5.80;;
52554;SDS011;38455;52.710;6.502;2022-08-19T07:18:17;8.27;;;6.22;;
52554;SDS011;38455;52.710;6.502;2022-08-19T07:20:45;7.45;;;5.57;;
52554;SDS011;38455;52.710;6.502;2022-08-19T07:23:11;7.70;;;5.75;;
52554;SDS011;38455;52.710;6.502;2022-08-19T07:25:37;7.65;;;5.50;;
52554;SDS011;38455;52.710;6.502;2022-08-19T07:28:03;11.23;;;6.35;;
52554;SDS011;38455;52.710;6.502;2022-08-19T07:30:29;9.38;;;5.32;;
52554;SDS011;38455;52.710;6.502;2022-08-19T07:32:55;7.45;;;5.93;;
52554;SDS011;38455;52.710;6.502;2022-08-19T07:35:21;8.32;;;5.90;;
52554;SDS011;38455;52.710;6.502;2022-08-19T07:37:48;9.30;;;6.50;;
52554;SDS011;38455;52.710;6.502;2022-08-19T07:40:14;6.85;;;5.60;;
52554;SDS011;38455;52.710;6.502;2022-08-19T07:42:40;7.13;;;6.00;;
52554;SDS011;38455;52.710;6.502;2022-08-19T07:45:06;10.30;;;5.82;;
52554;SDS011;38455;52.710;6.502;2022-08-19T07:47:32;9.98;;;6.20;;
52554;SDS011;38455;52.710;6.502;2022-08-19T07:49:58;6.03;;;4.82;;
52554;SDS011;38455;52.710;6.502;2022-08-19T07:52:24;7.75;;;5.32;;
52554;SDS011;38455;52.710;6.502;2022-08-19T07:54:49;6.28;;;5.40;;
52554;SDS011;38455;52.710;6.502;2022-08-19T07:57:16;7.07;;;5.03;;
52554;SDS011;38455;52.710;6.502;2022-08-19T07:59:42;7.78;;;5.43;;
52554;SDS011;38455;52.710;6.502;2022-08-19T08:02:08;7.53;;;5.18;;
52554;SDS011;38455;52.710;6.502;2022-08-19T08:04:34;6.00;;;4.90;;
52554;SDS011;38455;52.710;6.502;2022-08-19T08:07:18;8.90;;;5.93;;
52554;SDS011;38455;52.710;6.502;2022-08-19T08:10:03;10.05;;;5.78;;
52554;SDS011;38455;52.710;6.502;2022-08-19T08:12:33;9.00;;;5.95;;
52554;SDS011;38455;52.710;6.502;2022-08-19T08:15:01;11.10;;;5.85;;
52554;SDS011;38455;52.710;6.502;2022-08-19T08:17:32;10.35;;;6.47;;
52554;SDS011;38455;52.710;6.502;2022-08-19T08:19:58;7.13;;;5.95;;
52554;SDS011;38455;52.710;6.502;2022-08-19T08:22:24;6.60;;;5.60;;
52554;SDS011;38455;52.710;6.502;2022-08-19T08:25:10;7.60;;;6.77;;
52554;SDS011;38455;52.710;6.502;2022-08-19T08:27:39;9.35;;;6.45;;
52554;SDS011;38455;52.710;6.502;2022-08-19T08:30:07;8.00;;;6.07;;
52554;SDS011;38455;52.710;6.502;2022-08-19T08:32:38;7.55;;;6.50;;
52554;SDS011;38455;52.710;6.502;2022-08-19T08:35:05;8.60;;;6.30;;
52554;SDS011;38455;52.710;6.502;2022-08-19T08:37:32;9.45;;;6.38;;
52554;SDS011;38455;52.710;6.502;2022-08-19T08:39:58;11.15;;;7.25;;
52554;SDS011;38455;52.710;6.502;2022-08-19T08:42:27;9.02;;;7.03;;
52554;SDS011;38455;52.710;6.502;2022-08-19T08:47:22;10.25;;;6.65;;
52554;SDS011;38455;52.710;6.502;2022-08-19T08:50:03;9.63;;;7.43;;
52554;SDS011;38455;52.710;6.502;2022-08-19T08:52:33;10.15;;;7.32;;
52554;SDS011;38455;52.710;6.502;2022-08-19T08:55:10;9.18;;;7.10;;
52554;SDS011;38455;52.710;6.502;2022-08-19T08:57:39;9.27;;;7.25;;
52554;SDS011;38455;52.710;6.502;2022-08-19T09:00:15;8.88;;;7.10;;
52554;SDS011;38455;52.710;6.502;2022-08-19T09:02:46;9.57;;;7.95;;
52554;SDS011;38455;52.710;6.502;2022-08-19T09:05:11;9.70;;;6.93;;
52554;SDS011;38455;52.710;6.502;2022-08-19T09:10:38;9.37;;;6.30;;
52554;SDS011;38455;52.710;6.502;2022-08-19T09:18:45;8.68;;;6.93;;
52554;SDS011;38455;52.710;6.502;2022-08-19T09:21:18;8.85;;;6.70;;
52554;SDS011;38455;52.710;6.502;2022-08-19T09:23:45;9.25;;;7.88;;
52554;SDS011;38455;52.710;6.502;2022-08-19T09:26:12;7.97;;;6.50;;
52554;SDS011;38455;52.710;6.502;2022-08-19T09:28:44;6.72;;;5.88;;
52554;SDS011;38455;52.710;6.502;2022-08-19T09:31:12;9.85;;;7.50;;
52554;SDS011;38455;52.710;6.502;2022-08-19T09:33:39;7.60;;;6.80;;
52554;SDS011;38455;52.710;6.502;2022-08-19T09:36:09;7.80;;;6.97;;
52554;SDS011;38455;52.710;6.502;2022-08-19T09:38:37;7.32;;;6.50;;
52554;SDS011;38455;52.710;6.502;2022-08-19T09:41:08;6.75;;;6.05;;
52554;SDS011;38455;52.710;6.502;2022-08-19T09:43:38;6.45;;;5.65;;
52554;SDS011;38455;52.710;6.502;2022-08-19T09:46:06;8.77;;;6.72;;
52554;SDS011;38455;52.710;6.502;2022-08-19T09:48:34;9.73;;;7.65;;
52554;SDS011;38455;52.710;6.502;2022-08-19T09:51:03;7.47;;;6.53;;
52554;SDS011;38455;52.710;6.502;2022-08-19T09:53:29;7.40;;;5.45;;
52554;SDS011;38455;52.710;6.502;2022-08-19T09:55:55;6.28;;;5.10;;
52554;SDS011;38455;52.710;6.502;2022-08-19T09:58:20;5.47;;;4.43;;
52554;SDS011;38455;52.710;6.502;2022-08-19T10:00:47;5.05;;;3.95;;
52554;SDS011;38455;52.710;6.502;2022-08-19T10:03:13;7.32;;;5.70;;
52554;SDS011;38455;52.710;6.502;2022-08-19T10:05:38;7.78;;;5.72;;
52554;SDS011;38455;52.710;6.502;2022-08-19T10:08:14;8.35;;;6.88;;
52554;SDS011;38455;52.710;6.502;2022-08-19T10:10:46;5.93;;;4.80;;
52554;SDS011;38455;52.710;6.502;2022-08-19T10:13:15;7.65;;;6.15;;
52554;SDS011;38455;52.710;6.502;2022-08-19T10:15:45;8.85;;;6.72;;
52554;SDS011;38455;52.710;6.502;2022-08-19T10:18:10;6.30;;;5.00;;
52554;SDS011;38455;52.710;6.502;2022-08-19T10:20:36;6.90;;;4.70;;
52554;SDS011;38455;52.710;6.502;2022-08-19T10:23:02;5.90;;;5.07;;
52554;SDS011;38455;52.710;6.502;2022-08-19T10:25:28;6.03;;;4.63;;
52554;SDS011;38455;52.710;6.502;2022-08-19T10:27:54;7.22;;;5.55;;
52554;SDS011;38455;52.710;6.502;2022-08-19T10:30:20;7.90;;;5.40;;
52554;SDS011;38455;52.710;6.502;2022-08-19T10:32:46;5.60;;;4.30;;
52554;SDS011;38455;52.710;6.502;2022-08-19T10:35:13;7.95;;;5.95;;
52554;SDS011;38455;52.710;6.502;2022-08-19T10:37:39;6.57;;;5.72;;
52554;SDS011;38455;52.710;6.502;2022-08-19T10:40:06;8.10;;;6.63;;
52554;SDS011;38455;52.710;6.502;2022-08-19T10:42:33;7.50;;;5.93;;
52554;SDS011;38455;52.710;6.502;2022-08-19T10:45:00;11.27;;;7.60;;
52554;SDS011;38455;52.710;6.502;2022-08-19T10:47:26;6.63;;;5.38;;
52554;SDS011;38455;52.710;6.502;2022-08-19T10:49:52;8.68;;;6.95;;
52554;SDS011;38455;52.710;6.502;2022-08-19T10:52:41;9.02;;;7.18;;
52554;SDS011;38455;52.710;6.502;2022-08-19T10:55:08;10.63;;;6.85;;
52554;SDS011;38455;52.710;6.502;2022-08-19T10:57:53;10.55;;;7.38;;
52554;SDS011;38455;52.710;6.502;2022-08-19T11:00:19;9.95;;;7.95;;
52554;SDS011;38455;52.710;6.502;2022-08-19T11:02:46;8.40;;;6.00;;
52554;SDS011;38455;52.710;6.502;2022-08-19T11:05:12;6.90;;;6.20;;
52554;SDS011;38455;52.710;6.502;2022-08-19T11:07:39;9.82;;;7.13;;
52554;SDS011;38455;52.710;6.502;2022-08-19T11:10:06;8.95;;;6.38;;
52554;SDS011;38455;52.710;6.502;2022-08-19T11:12:33;17.50;;;8.60;;
52554;SDS011;38455;52.710;6.502;2022-08-19T11:15:03;9.23;;;8.20;;
52554;SDS011;38455;52.710;6.502;2022-08-19T11:17:29;10.75;;;7.38;;
52554;SDS011;38455;52.710;6.502;2022-08-19T11:19:56;10.73;;;7.97;;
52554;SDS011;38455;52.710;6.502;2022-08-19T11:22:22;9.27;;;7.10;;
52554;SDS011;38455;52.710;6.502;2022-08-19T11:24:47;9.35;;;6.40;;
52554;SDS011;38455;52.710;6.502;2022-08-19T11:27:13;9.23;;;6.47;;
52554;SDS011;38455;52.710;6.502;2022-08-19T11:29:39;11.77;;;9.10;;
52554;SDS011;38455;52.710;6.502;2022-08-19T11:32:06;9.70;;;7.50;;
52554;SDS011;38455;52.710;6.502;2022-08-19T11:34:35;7.93;;;5.85;;
52554;SDS011;38455;52.710;6.502;2022-08-19T11:37:02;8.55;;;6.35;;
52554;SDS011;38455;52.710;6.502;2022-08-19T11:39:29;10.93;;;6.43;;
52554;SDS011;38455;52.710;6.502;2022-08-19T11:41:59;7.63;;;5.32;;
52554;SDS011;38455;52.710;6.502;2022-08-19T11:44:27;7.18;;;6.10;;
52554;SDS011;38455;52.710;6.502;2022-08-19T11:46:55;9.20;;;6.80;;
52554;SDS011;38455;52.710;6.502;2022-08-19T11:49:22;7.47;;;5.55;;
52554;SDS011;38455;52.710;6.502;2022-08-19T11:51:48;7.45;;;6.60;;
52554;SDS011;38455;52.710;6.502;2022-08-19T11:54:15;7.20;;;5.15;;
52554;SDS011;38455;52.710;6.502;2022-08-19T11:56:42;8.98;;;5.57;;
52554;SDS011;38455;52.710;6.502;2022-08-19T11:59:09;4.70;;;3.88;;
52554;SDS011;38455;52.710;6.502;2022-08-19T12:01:35;9.40;;;7.07;;
52554;SDS011;38455;52.710;6.502;2022-08-19T12:04:02;7.78;;;5.45;;
52554;SDS011;38455;52.710;6.502;2022-08-19T12:06:30;8.23;;;7.07;;
52554;SDS011;38455;52.710;6.502;2022-08-19T12:09:00;7.10;;;6.00;;
52554;SDS011;38455;52.710;6.502;2022-08-19T12:11:28;9.48;;;6.70;;
52554;SDS011;38455;52.710;6.502;2022-08-19T12:13:54;7.50;;;6.50;;
52554;SDS011;38455;52.710;6.502;2022-08-19T12:16:21;9.48;;;6.10;;
52554;SDS011;38455;52.710;6.502;2022-08-19T12:18:51;6.35;;;4.43;;
52554;SDS011;38455;52.710;6.502;2022-08-19T12:21:19;5.13;;;4.00;;
52554;SDS011;38455;52.710;6.502;2022-08-19T12:23:46;5.88;;;3.63;;
52554;SDS011;38455;52.710;6.502;2022-08-19T12:26:14;6.07;;;4.25;;
52554;SDS011;38455;52.710;6.502;2022-08-19T12:28:40;5.93;;;4.00;;
52554;SDS011;38455;52.710;6.502;2022-08-19T12:31:06;8.25;;;6.68;;
52554;SDS011;38455;52.710;6.502;2022-08-19T12:33:32;6.95;;;5.47;;
52554;SDS011;38455;52.710;6.502;2022-08-19T12:36:02;9.75;;;7.43;;
52554;SDS011;38455;52.710;6.502;2022-08-19T12:38:29;10.23;;;7.50;;
52554;SDS011;38455;52.710;6.502;2022-08-19T12:40:55;8.85;;;7.10;;
52554;SDS011;38455;52.710;6.502;2022-08-19T12:43:21;12.07;;;8.77;;
52554;SDS011;38455;52.710;6.502;2022-08-19T12:45:46;9.25;;;6.65;;
52554;SDS011;38455;52.710;6.502;2022-08-19T12:48:12;12.23;;;9.07;;
52554;SDS011;38455;52.710;6.502;2022-08-19T12:50:39;9.88;;;7.90;;
52554;SDS011;38455;52.710;6.502;2022-08-19T12:53:06;11.50;;;8.30;;
52554;SDS011;38455;52.710;6.502;2022-08-19T12:55:31;9.10;;;6.60;;
52554;SDS011;38455;52.710;6.502;2022-08-19T12:57:57;7.70;;;6.57;;
52554;SDS011;38455;52.710;6.502;2022-08-19T13:00:23;12.45;;;6.45;;
52554;SDS011;38455;52.710;6.502;2022-08-19T13:02:50;9.38;;;5.25;;
52554;SDS011;38455;52.710;6.502;2022-08-19T13:05:18;7.00;;;5.15;;
52554;SDS011;38455;52.710;6.502;2022-08-19T13:07:47;9.38;;;5.53;;
52554;SDS011;38455;52.710;6.502;2022-08-19T13:10:14;12.50;;;8.15;;
52554;SDS011;38455;52.710;6.502;2022-08-19T13:12:43;11.98;;;9.50;;
52554;SDS011;38455;52.710;6.502;2022-08-19T13:15:09;11.93;;;7.90;;
52554;SDS011;38455;52.710;6.502;2022-08-19T13:17:36;11.93;;;8.23;;
52554;SDS011;38455;52.710;6.502;2022-08-19T13:20:02;11.20;;;7.82;;
52554;SDS011;38455;52.710;6.502;2022-08-19T13:22:30;12.93;;;8.55;;
52554;SDS011;38455;52.710;6.502;2022-08-19T13:24:56;9.80;;;7.03;;
52554;SDS011;38455;52.710;6.502;2022-08-19T13:27:22;9.88;;;7.50;;
52554;SDS011;38455;52.710;6.502;2022-08-19T13:29:47;16.80;;;7.32;;
52554;SDS011;38455;52.710;6.502;2022-08-19T13:32:31;9.77;;;6.25;;
52554;SDS011;38455;52.710;6.502;2022-08-19T13:35:16;15.23;;;7.77;;
52554;SDS011;38455;52.710;6.502;2022-08-19T13:37:42;12.73;;;8.65;;
52554;SDS011;38455;52.710;6.502;2022-08-19T13:40:13;9.43;;;7.57;;
52554;SDS011;38455;52.710;6.502;2022-08-19T13:42:43;9.40;;;6.22;;
52554;SDS011;38455;52.710;6.502;2022-08-19T13:45:11;12.98;;;8.00;;
52554;SDS011;38455;52.710;6.502;2022-08-19T13:47:37;9.93;;;6.32;;
52554;SDS011;38455;52.710;6.502;2022-08-19T13:50:10;10.45;;;6.55;;
52554;SDS011;38455;52.710;6.502;2022-08-19T13:52:37;11.00;;;7.20;;
52554;SDS011;38455;52.710;6.502;2022-08-19T13:55:04;13.00;;;7.30;;
52554;SDS011;38455;52.710;6.502;2022-08-19T13:57:31;7.00;;;5.10;;
52554;SDS011;38455;52.710;6.502;2022-08-19T13:59:57;8.00;;;5.20;;
52554;SDS011;38455;52.710;6.502;2022-08-19T14:02:23;8.88;;;6.68;;
52554;SDS011;38455;52.710;6.502;2022-08-19T14:04:49;8.30;;;6.07;;
52554;SDS011;38455;52.710;6.502;2022-08-19T14:07:14;8.38;;;5.75;;
52554;SDS011;38455;52.710;6.502;2022-08-19T14:09:40;7.18;;;4.90;;
52554;SDS011;38455;52.710;6.502;2022-08-19T14:12:06;8.63;;;4.63;;
52554;SDS011;38455;52.710;6.502;2022-08-19T14:14:32;7.35;;;5.03;;
52554;SDS011;38455;52.710;6.502;2022-08-19T14:17:00;6.28;;;5.05;;
52554;SDS011;38455;52.710;6.502;2022-08-19T14:19:26;7.55;;;5.25;;
52554;SDS011;38455;52.710;6.502;2022-08-19T14:21:52;11.48;;;6.55;;
52554;SDS011;38455;52.710;6.502;2022-08-19T14:24:17;8.77;;;6.00;;
52554;SDS011;38455;52.710;6.502;2022-08-19T14:26:43;8.48;;;5.57;;
52554;SDS011;38455;52.710;6.502;2022-08-19T14:29:08;9.43;;;7.55;;
52554;SDS011;38455;52.710;6.502;2022-08-19T14:31:34;9.88;;;7.38;;
52554;SDS011;38455;52.710;6.502;2022-08-19T14:33:59;11.95;;;8.63;;
52554;SDS011;38455;52.710;6.502;2022-08-19T14:36:25;16.38;;;11.15;;
52554;SDS011;38455;52.710;6.502;2022-08-19T14:38:51;14.90;;;12.02;;
52554;SDS011;38455;52.710;6.502;2022-08-19T14:41:21;16.40;;;9.13;;
52554;SDS011;38455;52.710;6.502;2022-08-19T14:43:48;16.58;;;10.23;;
52554;SDS011;38455;52.710;6.502;2022-08-19T14:46:16;14.68;;;10.10;;
52554;SDS011;38455;52.710;6.502;2022-08-19T14:48:45;15.45;;;9.45;;
52554;SDS011;38455;52.710;6.502;2022-08-19T14:51:11;14.43;;;7.38;;
52554;SDS011;38455;52.710;6.502;2022-08-19T14:53:37;14.35;;;9.30;;
52554;SDS011;38455;52.710;6.502;2022-08-19T14:56:07;11.93;;;7.82;;
52554;SDS011;38455;52.710;6.502;2022-08-19T14:58:37;17.73;;;9.55;;
52554;SDS011;38455;52.710;6.502;2022-08-19T15:01:05;13.38;;;7.68;;
52554;SDS011;38455;52.710;6.502;2022-08-19T15:03:30;9.48;;;6.65;;